createdAt,value
2022-10-19T00:00:33.664Z,11.27
2022-10-19T00:03:00.418Z,8.80
2022-10-19T00:05:28.285Z,13.43
2022-10-19T00:07:55.799Z,10.40
2022-10-19T00:10:22.744Z,10.23
2022-10-19T00:12:49.550Z,10.60
2022-10-19T00:15:16.535Z,9.80
2022-10-19T00:17:43.505Z,10.13
2022-10-19T00:20:11.486Z,9.27
2022-10-19T00:22:38.653Z,12.17
2022-10-19T00:25:05.965Z,7.27
2022-10-19T00:27:32.889Z,10.60
2022-10-19T00:29:59.836Z,8.40
2022-10-19T00:32:26.632Z,11.60
2022-10-19T00:34:53.481Z,9.30
2022-10-19T00:37:20.288Z,11.73
2022-10-19T00:39:47.173Z,8.70
2022-10-19T00:42:13.966Z,8.10
2022-10-19T00:44:40.757Z,10.43
2022-10-19T00:47:08.618Z,9.57
2022-10-19T00:49:44.260Z,9.63
2022-10-19T00:52:15.213Z,9.57
2022-10-19T00:54:44.656Z,10.40
2022-10-19T00:59:41.329Z,13.93
2022-10-19T01:02:08.148Z,11.82
2022-10-19T01:04:38.950Z,8.80
2022-10-19T01:07:08.267Z,10.33
2022-10-19T01:09:35.189Z,11.80
2022-10-19T01:12:38.898Z,11.13
2022-10-19T01:15:27.354Z,10.13
2022-10-19T01:18:19.138Z,11.27
2022-10-19T01:21:16.824Z,10.00
2022-10-19T01:24:20.232Z,11.30
2022-10-19T01:27:23.664Z,9.60
2022-10-19T01:29:59.241Z,10.87
2022-10-19T01:32:35.904Z,9.07
2022-10-19T01:35:26.161Z,9.07
2022-10-19T01:38:15.867Z,8.93
2022-10-19T01:40:53.545Z,11.13
2022-10-19T01:43:29.176Z,11.37
2022-10-19T01:46:07.261Z,10.03
2022-10-19T01:48:38.011Z,8.97
2022-10-19T01:51:20.222Z,11.50
2022-10-19T01:53:53.167Z,13.37
2022-10-19T01:56:24.878Z,12.20
2022-10-19T01:58:54.254Z,10.83
2022-10-19T02:03:53.255Z,12.60
2022-10-19T02:06:21.090Z,10.47
2022-10-19T02:08:50.915Z,8.67
2022-10-19T02:11:19.354Z,11.00
2022-10-19T02:13:51.723Z,10.40
2022-10-19T02:16:28.295Z,10.33
2022-10-19T02:18:56.565Z,13.07
2022-10-19T02:21:24.015Z,8.37
2022-10-19T02:23:53.376Z,12.23
2022-10-19T02:26:21.462Z,13.13
2022-10-19T02:28:49.143Z,13.53
2022-10-19T02:31:16.623Z,9.33
2022-10-19T02:33:43.703Z,13.87
2022-10-19T02:36:10.625Z,12.20
2022-10-19T02:38:37.487Z,11.67
2022-10-19T02:41:22.862Z,9.27
2022-10-19T02:44:00.552Z,13.17
2022-10-19T02:46:42.861Z,11.90
2022-10-19T02:49:11.937Z,9.33
2022-10-19T02:51:54.800Z,9.35
2022-10-19T02:54:22.118Z,11.63
2022-10-19T02:56:48.934Z,11.03
2022-10-19T02:59:15.850Z,11.83
2022-10-19T03:01:42.705Z,12.17
2022-10-19T03:04:09.746Z,10.60
2022-10-19T03:06:36.640Z,10.90
2022-10-19T03:09:04.052Z,12.83
2022-10-19T03:11:31.098Z,10.40
2022-10-19T03:13:57.929Z,9.40
2022-10-19T03:16:24.722Z,7.20
2022-10-19T03:18:51.962Z,8.83
2022-10-19T03:21:19.915Z,7.20
2022-10-19T03:23:46.889Z,8.93
2022-10-19T03:26:16.798Z,12.13
2022-10-19T03:28:43.674Z,12.60
2022-10-19T03:31:10.519Z,11.43
2022-10-19T03:33:37.338Z,10.90
2022-10-19T03:36:35.153Z,12.73
2022-10-19T03:39:08.744Z,11.53
2022-10-19T03:41:37.287Z,15.10
2022-10-19T03:44:04.812Z,15.10
2022-10-19T03:46:31.948Z,20.47
2022-10-19T03:48:58.922Z,14.37
2022-10-19T03:51:30.267Z,14.37
2022-10-19T03:54:07.121Z,11.63
2022-10-19T03:56:35.701Z,25.67
2022-10-19T03:59:04.977Z,42.90
2022-10-19T04:01:37.976Z,25.55
2022-10-19T04:04:07.619Z,20.50
2022-10-19T04:06:37.143Z,16.67
2022-10-19T04:11:33.624Z,17.27
2022-10-19T04:14:01.572Z,14.35
2022-10-19T04:16:30.565Z,19.47
2022-10-19T04:18:58.213Z,23.38
2022-10-19T04:21:30.975Z,18.53
2022-10-19T04:24:02.970Z,18.30
2022-10-19T04:26:30.600Z,22.90
2022-10-19T04:29:01.735Z,24.00
2022-10-19T04:31:29.526Z,27.87
2022-10-19T04:33:57.435Z,28.23
2022-10-19T04:36:24.329Z,21.93
2022-10-19T04:38:51.683Z,28.27
2022-10-19T04:41:21.095Z,24.43
2022-10-19T04:46:17.680Z,35.93
2022-10-19T04:51:12.464Z,34.17
2022-10-19T04:53:40.927Z,37.70
2022-10-19T04:56:11.997Z,33.13
2022-10-19T04:58:38.843Z,37.73
2022-10-19T05:01:20.136Z,35.63
2022-10-19T05:03:48.434Z,70.37
2022-10-19T05:06:15.901Z,45.13
2022-10-19T05:08:43.016Z,41.17
2022-10-19T05:11:13.200Z,56.03
2022-10-19T05:13:40.609Z,53.33
2022-10-19T05:16:10.978Z,59.43
2022-10-19T05:18:38.228Z,61.23
2022-10-19T05:21:13.633Z,58.90
2022-10-19T05:23:41.976Z,78.20
2022-10-19T05:26:12.067Z,75.00
2022-10-19T05:28:39.272Z,60.83
2022-10-19T05:31:12.024Z,68.10
2022-10-19T05:33:39.602Z,61.43
2022-10-19T05:36:21.555Z,66.90
2022-10-19T05:38:50.407Z,61.20
2022-10-19T05:41:17.602Z,67.60
2022-10-19T05:43:45.312Z,61.87
2022-10-19T05:46:15.287Z,61.77
2022-10-19T05:48:42.242Z,53.90
2022-10-19T05:51:12.003Z,38.67
2022-10-19T05:56:29.119Z,31.67
2022-10-19T05:59:02.019Z,29.10
2022-10-19T06:01:29.564Z,31.97
2022-10-19T06:03:58.342Z,27.60
2022-10-19T06:06:27.226Z,29.52
2022-10-19T06:08:55.852Z,24.38
2022-10-19T06:11:26.824Z,26.20
2022-10-19T06:13:56.550Z,29.37
2022-10-19T06:16:24.972Z,26.67
2022-10-19T06:18:53.363Z,28.93
2022-10-19T06:21:22.687Z,26.97
2022-10-19T06:23:58.447Z,22.52
2022-10-19T06:26:26.317Z,27.70
2022-10-19T06:28:56.794Z,20.40
2022-10-19T06:31:23.804Z,18.57
2022-10-19T06:33:51.103Z,22.33
2022-10-19T06:36:22.884Z,23.23
2022-10-19T06:38:50.106Z,24.10
2022-10-19T06:41:17.726Z,26.53
2022-10-19T06:43:44.745Z,20.73
2022-10-19T06:46:20.656Z,29.10
2022-10-19T06:48:56.786Z,22.37
2022-10-19T06:51:26.167Z,26.40
2022-10-19T06:53:56.538Z,28.67
2022-10-19T06:56:24.848Z,28.77
2022-10-19T06:58:52.107Z,24.07
2022-10-19T07:01:19.150Z,25.87
2022-10-19T07:03:46.140Z,21.50
2022-10-19T07:06:13.677Z,28.23
2022-10-19T07:08:41.817Z,29.33
2022-10-19T07:11:12.702Z,23.60
2022-10-19T07:13:39.669Z,29.07
2022-10-19T07:16:16.000Z,23.07
2022-10-19T07:18:47.570Z,46.33
2022-10-19T07:21:15.977Z,26.73
2022-10-19T07:23:45.135Z,21.67
2022-10-19T07:26:24.781Z,20.75
2022-10-19T07:28:52.592Z,19.07
2022-10-19T07:31:22.430Z,22.30
2022-10-19T07:33:57.504Z,25.70
2022-10-19T07:36:25.256Z,20.77
2022-10-19T07:38:52.532Z,19.00
2022-10-19T07:41:22.027Z,24.83
2022-10-19T07:43:50.083Z,20.03
2022-10-19T07:46:19.967Z,23.47
2022-10-19T07:48:47.546Z,19.90
2022-10-19T07:51:16.200Z,16.13
2022-10-19T07:53:43.564Z,29.92
2022-10-19T07:56:11.827Z,21.23
2022-10-19T07:58:39.106Z,23.13
2022-10-19T08:01:11.463Z,24.17
2022-10-19T08:06:26.365Z,25.52
2022-10-19T08:08:54.007Z,29.70
2022-10-19T08:11:27.570Z,21.85
2022-10-19T08:13:54.849Z,20.80
2022-10-19T08:16:23.251Z,21.92
2022-10-19T08:18:51.100Z,21.42
2022-10-19T08:21:18.713Z,21.83
2022-10-19T08:23:45.599Z,20.88
2022-10-19T08:26:12.497Z,20.95
2022-10-19T08:28:39.778Z,20.45
2022-10-19T08:31:16.000Z,24.10
2022-10-19T08:33:43.212Z,21.48
2022-10-19T08:36:12.021Z,19.27
2022-10-19T08:38:39.489Z,17.05
2022-10-19T08:41:17.559Z,18.42
2022-10-19T08:43:57.936Z,15.07
2022-10-19T08:47:06.066Z,11.05
2022-10-19T08:49:34.745Z,14.65
2022-10-19T08:52:05.353Z,9.20
2022-10-19T08:54:42.735Z,7.75
2022-10-19T08:57:15.306Z,9.10
2022-10-19T09:00:01.314Z,8.98
2022-10-19T09:02:36.873Z,7.30
2022-10-19T09:05:28.820Z,8.30
2022-10-19T09:07:55.905Z,8.43
2022-10-19T09:10:26.907Z,9.32
2022-10-19T09:13:00.623Z,7.22
2022-10-19T09:15:40.231Z,8.25
2022-10-19T09:18:24.019Z,7.10
2022-10-19T09:21:13.357Z,8.93
2022-10-19T09:23:47.301Z,6.40
2022-10-19T09:26:17.724Z,4.05
2022-10-19T09:29:06.836Z,5.85
2022-10-19T09:31:40.690Z,2.20
2022-10-19T09:34:34.064Z,4.53
2022-10-19T09:37:01.029Z,4.72
2022-10-19T09:39:29.901Z,5.05
2022-10-19T09:41:58.268Z,5.13
2022-10-19T09:44:26.486Z,3.83
2022-10-19T09:47:02.942Z,5.43
2022-10-19T09:49:47.152Z,4.43
2022-10-19T09:52:39.505Z,5.10
2022-10-19T09:55:15.880Z,5.60
2022-10-19T09:57:48.092Z,5.72
2022-10-19T10:00:24.480Z,3.30
2022-10-19T10:02:53.736Z,5.50
2022-10-19T10:05:30.013Z,5.88
2022-10-19T10:07:56.972Z,4.90
2022-10-19T10:10:30.568Z,7.55
2022-10-19T10:13:01.750Z,3.92
2022-10-19T10:15:36.603Z,4.80
2022-10-19T10:18:04.019Z,8.50
2022-10-19T10:20:32.719Z,5.07
2022-10-19T10:23:00.783Z,4.82
2022-10-19T10:25:31.632Z,7.27
2022-10-19T10:28:04.560Z,4.90
2022-10-19T10:30:35.523Z,5.03
2022-10-19T10:33:15.774Z,6.60
2022-10-19T10:35:55.866Z,6.90
2022-10-19T10:38:27.882Z,8.40
2022-10-19T10:41:00.208Z,4.07
2022-10-19T10:43:33.190Z,7.47
2022-10-19T10:46:13.904Z,5.88
2022-10-19T10:48:45.188Z,6.65
2022-10-19T10:51:26.138Z,7.97
2022-10-19T10:54:17.032Z,3.92
2022-10-19T10:56:54.769Z,7.70
2022-10-19T10:59:31.654Z,3.30
2022-10-19T11:02:03.439Z,6.75
2022-10-19T11:04:37.469Z,6.07
2022-10-19T11:07:32.990Z,6.00
2022-10-19T11:10:09.931Z,7.38
2022-10-19T11:12:41.793Z,3.35
2022-10-19T11:15:26.839Z,5.75
2022-10-19T11:18:22.694Z,4.85
2022-10-19T11:21:00.335Z,7.22
2022-10-19T11:23:34.782Z,5.70
2022-10-19T11:26:31.372Z,5.10
2022-10-19T11:29:10.375Z,6.88
2022-10-19T11:31:50.558Z,4.78
2022-10-19T11:34:43.454Z,4.07
2022-10-19T11:37:45.830Z,13.68
2022-10-19T11:41:12.867Z,5.07
2022-10-19T11:43:54.380Z,3.88
2022-10-19T11:46:25.480Z,4.00
2022-10-19T11:49:04.542Z,3.35
2022-10-19T11:51:49.975Z,2.97
2022-10-19T11:54:22.616Z,2.70
2022-10-19T11:57:03.492Z,3.05
2022-10-19T12:00:15.693Z,3.35
2022-10-19T12:03:32.197Z,2.53
2022-10-19T12:06:09.442Z,3.92
2022-10-19T12:08:42.370Z,5.28
2022-10-19T12:11:28.974Z,4.50
2022-10-19T12:14:01.064Z,5.03
2022-10-19T12:16:38.362Z,3.95
2022-10-19T12:19:06.977Z,5.82
2022-10-19T12:21:41.139Z,9.55
2022-10-19T12:24:15.766Z,3.50
2022-10-19T12:26:44.998Z,4.35
2022-10-19T12:29:22.095Z,4.95
2022-10-19T12:31:50.306Z,4.60
2022-10-19T12:34:29.362Z,3.70
2022-10-19T12:40:05.405Z,6.13
2022-10-19T12:42:38.976Z,8.45
2022-10-19T12:45:18.438Z,4.55
2022-10-19T12:48:13.166Z,6.60
2022-10-19T12:50:50.080Z,4.93
2022-10-19T12:53:27.907Z,5.30
2022-10-19T12:56:03.923Z,11.03
2022-10-19T12:58:36.797Z,5.18
2022-10-19T13:01:06.549Z,3.45
2022-10-19T13:03:37.261Z,7.72
2022-10-19T13:06:18.571Z,3.58
2022-10-19T13:08:54.448Z,4.07
2022-10-19T13:11:22.242Z,2.58
2022-10-19T13:14:07.308Z,8.15
2022-10-19T13:16:34.174Z,6.07
2022-10-19T13:19:13.164Z,8.20
2022-10-19T13:21:47.955Z,8.85
2022-10-19T13:24:29.341Z,8.07
2022-10-19T13:27:02.338Z,6.25
2022-10-19T13:29:44.863Z,10.13
2022-10-19T13:32:37.828Z,4.65
2022-10-19T13:35:25.767Z,6.22
2022-10-19T13:38:14.337Z,6.85
2022-10-19T13:43:22.617Z,2.22
2022-10-19T13:46:13.543Z,5.43
2022-10-19T13:48:49.610Z,5.30
2022-10-19T13:52:00.598Z,4.57
2022-10-19T13:54:45.593Z,8.25
2022-10-19T13:57:15.123Z,4.70
2022-10-19T14:00:30.259Z,5.03
2022-10-19T14:03:15.456Z,6.68
2022-10-19T14:05:57.349Z,6.82
2022-10-19T14:08:55.019Z,3.65
2022-10-19T14:11:33.914Z,5.18
2022-10-19T14:14:07.950Z,6.40
2022-10-19T14:16:35.448Z,8.27
2022-10-19T14:19:02.261Z,8.40
2022-10-19T14:21:37.038Z,6.10
2022-10-19T14:24:20.040Z,3.63
2022-10-19T14:26:47.522Z,8.18
2022-10-19T14:29:14.769Z,3.75
2022-10-19T14:31:42.070Z,9.02
2022-10-19T14:34:09.674Z,5.82
2022-10-19T14:36:39.523Z,5.88
2022-10-19T14:39:06.481Z,8.38
2022-10-19T14:41:36.329Z,4.25
2022-10-19T14:44:35.152Z,7.93
2022-10-19T14:49:29.581Z,6.93
2022-10-19T14:52:01.511Z,4.15
2022-10-19T14:54:41.144Z,4.82
2022-10-19T14:57:19.771Z,7.68
2022-10-19T14:59:50.400Z,6.60
2022-10-19T15:02:31.265Z,9.48
2022-10-19T15:05:00.765Z,9.68
2022-10-19T15:07:41.918Z,12.55
2022-10-19T15:10:19.199Z,8.48
2022-10-19T15:12:46.330Z,7.78
2022-10-19T15:15:19.684Z,10.25
2022-10-19T15:18:30.192Z,7.72
2022-10-19T15:21:12.958Z,10.32
2022-10-19T15:23:46.799Z,11.32
2022-10-19T15:26:21.003Z,8.48
2022-10-19T15:28:49.248Z,12.85
2022-10-19T15:31:18.503Z,11.60
2022-10-19T15:33:49.736Z,9.95
2022-10-19T15:36:17.694Z,12.32
2022-10-19T15:39:18.474Z,10.60
2022-10-19T15:41:53.129Z,11.73
2022-10-19T15:44:42.986Z,11.57
2022-10-19T15:47:15.481Z,10.20
2022-10-19T15:49:42.259Z,11.75
2022-10-19T15:52:27.202Z,10.68
2022-10-19T15:54:56.059Z,19.70
2022-10-19T15:57:28.708Z,13.63
2022-10-19T15:59:57.309Z,17.75
2022-10-19T16:02:25.412Z,12.02
2022-10-19T16:04:53.827Z,15.35
2022-10-19T16:07:32.753Z,15.95
2022-10-19T16:12:27.314Z,16.88
2022-10-19T16:14:54.969Z,19.45
2022-10-19T16:17:22.879Z,17.65
2022-10-19T16:19:49.785Z,16.10
2022-10-19T16:22:17.048Z,25.23
2022-10-19T16:24:44.006Z,19.50
2022-10-19T16:27:15.278Z,22.05
2022-10-19T16:29:44.391Z,20.95
2022-10-19T16:32:11.496Z,16.00
2022-10-19T16:34:38.646Z,15.25
2022-10-19T16:37:07.108Z,15.50
2022-10-19T16:39:35.091Z,15.18
2022-10-19T16:42:02.344Z,15.60
2022-10-19T16:44:29.578Z,17.38
2022-10-19T16:46:57.997Z,15.55
2022-10-19T16:49:25.686Z,15.95
2022-10-19T16:51:56.296Z,16.85
2022-10-19T16:54:26.859Z,18.55
2022-10-19T16:59:20.571Z,16.30
2022-10-19T17:01:48.433Z,13.93
2022-10-19T17:04:18.098Z,15.13
2022-10-19T17:06:45.112Z,15.57
2022-10-19T17:11:59.111Z,16.25
2022-10-19T17:14:27.523Z,14.48
2022-10-19T17:16:54.367Z,12.38
2022-10-19T17:19:21.392Z,12.40
2022-10-19T17:21:49.459Z,16.92
2022-10-19T17:24:21.612Z,15.90
2022-10-19T17:26:51.003Z,13.15
2022-10-19T17:29:19.135Z,11.98
2022-10-19T17:31:46.329Z,12.23
2022-10-19T17:34:13.347Z,13.85
2022-10-19T17:36:44.905Z,15.30
2022-10-19T17:39:17.701Z,12.05
2022-10-19T17:41:46.432Z,12.38
2022-10-19T17:44:13.985Z,14.38
2022-10-19T17:46:42.108Z,12.75
2022-10-19T17:49:10.389Z,12.80
2022-10-19T17:51:37.911Z,16.87
2022-10-19T17:54:12.397Z,19.75
2022-10-19T17:56:40.373Z,17.70
2022-10-19T17:59:09.224Z,20.90
2022-10-19T18:01:37.131Z,15.73
2022-10-19T18:04:04.918Z,17.63
2022-10-19T18:06:34.777Z,16.02
2022-10-19T18:09:04.601Z,11.68
2022-10-19T18:11:38.705Z,15.25
2022-10-19T18:14:08.391Z,11.85
2022-10-19T18:16:38.543Z,12.18
2022-10-19T18:19:07.102Z,9.38
2022-10-19T18:21:40.649Z,13.73
2022-10-19T18:24:14.289Z,12.40
2022-10-19T18:26:43.207Z,9.50
2022-10-19T18:29:21.793Z,10.02
2022-10-19T18:31:51.818Z,12.25
2022-10-19T18:34:24.661Z,10.00
2022-10-19T18:36:53.817Z,10.68
2022-10-19T18:39:21.440Z,10.85
2022-10-19T18:41:54.627Z,11.18
2022-10-19T18:44:26.340Z,13.13
2022-10-19T18:46:54.449Z,15.40
2022-10-19T18:49:21.497Z,15.30
2022-10-19T18:51:54.111Z,17.45
2022-10-19T18:54:22.743Z,17.40
2022-10-19T18:56:49.552Z,17.95
2022-10-19T18:59:16.601Z,17.95
2022-10-19T19:01:43.699Z,18.35
2022-10-19T19:04:10.968Z,23.13
2022-10-19T19:06:39.485Z,19.77
2022-10-19T19:09:13.769Z,20.33
2022-10-19T19:11:41.494Z,19.48
2022-10-19T19:14:16.281Z,17.05
2022-10-19T19:16:44.789Z,15.45
2022-10-19T19:19:14.124Z,12.27
2022-10-19T19:21:44.974Z,13.57
2022-10-19T19:24:21.966Z,10.80
2022-10-19T19:26:55.076Z,14.55
2022-10-19T19:29:22.819Z,28.77
2022-10-19T19:31:50.750Z,17.08
2022-10-19T19:34:18.158Z,16.02
2022-10-19T19:36:47.748Z,15.48
2022-10-19T19:39:17.318Z,15.43
2022-10-19T19:41:44.200Z,13.95
2022-10-19T19:44:11.462Z,16.40
2022-10-19T19:46:39.066Z,15.98
2022-10-19T19:49:06.075Z,16.65
2022-10-19T19:51:33.605Z,18.98
2022-10-19T19:54:00.569Z,17.63
2022-10-19T19:56:29.047Z,14.93
2022-10-19T19:58:58.060Z,17.48
2022-10-19T20:01:25.424Z,15.13
2022-10-19T20:03:52.573Z,16.13
2022-10-19T20:06:23.556Z,16.35
2022-10-19T20:08:53.083Z,20.00
2022-10-19T20:11:20.093Z,19.65
2022-10-19T20:13:47.063Z,15.32
2022-10-19T20:16:19.820Z,15.07
2022-10-19T20:18:52.619Z,17.10
2022-10-19T20:21:23.536Z,15.20
2022-10-19T20:23:52.202Z,14.70
2022-10-19T20:26:23.379Z,12.90
2022-10-19T20:28:50.450Z,13.88
2022-10-19T20:31:17.920Z,13.27
2022-10-19T20:33:45.392Z,14.88
2022-10-19T20:36:17.236Z,15.13
2022-10-19T20:39:05.685Z,11.85
2022-10-19T20:41:32.583Z,14.52
2022-10-19T20:43:59.906Z,13.48
2022-10-19T20:46:30.674Z,16.00
2022-10-19T20:49:00.836Z,13.57
2022-10-19T20:51:32.024Z,16.27
2022-10-19T20:54:01.561Z,15.40
2022-10-19T20:56:31.130Z,17.13
2022-10-19T20:59:00.637Z,14.77
2022-10-19T21:01:29.983Z,16.90
2022-10-19T21:04:00.628Z,16.67
2022-10-19T21:06:29.864Z,16.70
2022-10-19T21:08:56.954Z,14.52
2022-10-19T21:11:26.679Z,14.98
2022-10-19T21:13:56.118Z,14.82
2022-10-19T21:16:24.647Z,16.10
2022-10-19T21:18:51.457Z,16.73
2022-10-19T21:21:29.851Z,17.23
2022-10-19T21:24:00.003Z,15.07
2022-10-19T21:26:31.017Z,16.30
2022-10-19T21:28:58.468Z,16.40
2022-10-19T21:31:26.773Z,15.15
2022-10-19T21:33:54.408Z,16.27
2022-10-19T21:36:25.376Z,17.77
2022-10-19T21:38:52.297Z,16.17
2022-10-19T21:41:25.337Z,15.13
2022-10-19T21:43:53.733Z,16.33
2022-10-19T21:46:21.935Z,15.27
2022-10-19T21:48:49.441Z,20.13
2022-10-19T21:51:25.092Z,17.70
2022-10-19T21:53:51.978Z,17.73
2022-10-19T21:56:18.867Z,17.13
2022-10-19T21:58:47.046Z,16.95
2022-10-19T22:01:14.691Z,17.30
2022-10-19T22:03:41.639Z,16.73
2022-10-19T22:06:08.586Z,17.17
2022-10-19T22:08:35.539Z,18.60
2022-10-19T22:11:10.971Z,18.08
2022-10-19T22:13:37.855Z,15.32
2022-10-19T22:16:19.254Z,17.77
2022-10-19T22:18:46.627Z,20.23
2022-10-19T22:21:25.171Z,18.75
2022-10-19T22:23:57.922Z,19.25
2022-10-19T22:26:28.106Z,20.65
2022-10-19T22:28:57.060Z,21.90
2022-10-19T22:31:25.706Z,18.75
2022-10-19T22:33:52.514Z,22.40
2022-10-19T22:36:19.459Z,19.00
2022-10-19T22:38:46.298Z,23.52
2022-10-19T22:41:13.122Z,22.60
2022-10-19T22:43:39.962Z,19.20
2022-10-19T22:46:06.874Z,23.67
2022-10-19T22:48:34.039Z,22.15
2022-10-19T22:51:00.941Z,23.67
2022-10-19T22:53:27.814Z,22.42
2022-10-19T22:55:54.623Z,23.80
2022-10-19T22:58:21.421Z,20.77
2022-10-19T23:00:59.896Z,22.92
2022-10-19T23:03:26.744Z,24.08
2022-10-19T23:05:53.498Z,24.83
2022-10-19T23:08:20.366Z,23.85
2022-10-19T23:10:47.176Z,23.30
2022-10-19T23:13:14.074Z,24.85
2022-10-19T23:15:43.973Z,23.70
2022-10-19T23:18:12.032Z,22.95
2022-10-19T23:20:39.075Z,25.05
2022-10-19T23:23:06.263Z,27.20
2022-10-19T23:28:19.862Z,27.33
2022-10-19T23:30:46.694Z,28.38
2022-10-19T23:33:13.479Z,24.98
2022-10-19T23:35:40.260Z,25.52
2022-10-19T23:38:07.023Z,25.95
2022-10-19T23:40:33.822Z,25.95
2022-10-19T23:43:00.680Z,28.27
2022-10-19T23:45:27.447Z,28.42
2022-10-19T23:47:54.253Z,30.50
2022-10-19T23:50:21.023Z,25.76
2022-10-19T23:55:14.606Z,27.73
2022-10-19T23:57:41.358Z,32.40
